Pirtle, Texas
Current Conditions -  °F | °C
As of 8:35 AM on Thursday 30 Oct 2014 (Local Time) from KRFI Reporting Station
Clear Clear  
Wind Chill: 47°   Ceiling: Unl
Heat Index: 47°   Visibility: 10mi
Dew Point: 47°   Wind: 0mph
Humidity: 99%   Direction: NA
Pressure: 30.18"   Gusts: NA
Location:  32.2818°N, 94.951°W
Report Text: KRFI 301335Z AUTO 00000KT 10SM CLR 09/09 A3018 RMK AO2 T00860085
Loading
Personal Weather Stations






























Interactive Weather Map
Tropical Storm Tracking
New forecast layout! Learn more

10-Day Weather Forecast

Advertisements
Track Severe Weather on mobile